sensor_id;sensor_type;location;lat;lon;timestamp;temperature;humidity
15959;DHT22;8078;47.822;9.402;2023-06-22T00:01:48;18.20;99.90
15959;DHT22;8078;47.822;9.402;2023-06-22T00:04:13;18.30;99.90
15959;DHT22;8078;47.822;9.402;2023-06-22T00:06:39;18.20;99.90
15959;DHT22;8078;47.822;9.402;2023-06-22T00:09:05;18.20;99.90
15959;DHT22;8078;47.822;9.402;2023-06-22T00:11:32;18.30;99.90
15959;DHT22;8078;47.822;9.402;2023-06-22T00:13:59;18.10;99.90
15959;DHT22;8078;47.822;9.402;2023-06-22T00:16:24;18.00;99.90
15959;DHT22;8078;47.822;9.402;2023-06-22T00:18:50;17.80;99.90
15959;DHT22;8078;47.822;9.402;2023-06-22T00:21:16;17.80;99.90
15959;DHT22;8078;47.822;9.402;2023-06-22T00:23:41;17.80;99.90
15959;DHT22;8078;47.822;9.402;2023-06-22T00:26:07;17.80;99.90
15959;DHT22;8078;47.822;9.402;2023-06-22T00:28:33;17.60;99.90
15959;DHT22;8078;47.822;9.402;2023-06-22T00:30:59;17.60;99.90
15959;DHT22;8078;47.822;9.402;2023-06-22T00:33:26;17.60;99.90
15959;DHT22;8078;47.822;9.402;2023-06-22T00:35:51;17.80;99.90
15959;DHT22;8078;47.822;9.402;2023-06-22T00:38:19;17.80;99.90
15959;DHT22;8078;47.822;9.402;2023-06-22T00:40:45;17.70;99.90
15959;DHT22;8078;47.822;9.402;2023-06-22T00:43:11;17.70;99.90
15959;DHT22;8078;47.822;9.402;2023-06-22T00:45:36;17.60;99.90
15959;DHT22;8078;47.822;9.402;2023-06-22T00:48:02;17.60;99.90
15959;DHT22;8078;47.822;9.402;2023-06-22T00:50:33;17.50;99.90
15959;DHT22;8078;47.822;9.402;2023-06-22T00:53:01;17.50;99.90
15959;DHT22;8078;47.822;9.402;2023-06-22T00:55:29;17.40;99.90
15959;DHT22;8078;47.822;9.402;2023-06-22T00:57:55;17.50;99.90
15959;DHT22;8078;47.822;9.402;2023-06-22T01:00:23;17.60;99.90
15959;DHT22;8078;47.822;9.402;2023-06-22T01:02:51;17.60;99.90
15959;DHT22;8078;47.822;9.402;2023-06-22T01:05:18;17.70;99.90
15959;DHT22;8078;47.822;9.402;2023-06-22T01:10:28;17.70;99.90
15959;DHT22;8078;47.822;9.402;2023-06-22T01:13:01;17.70;99.90
15959;DHT22;8078;47.822;9.402;2023-06-22T01:15:42;17.60;99.90
15959;DHT22;8078;47.822;9.402;2023-06-22T01:18:12;17.50;99.90
15959;DHT22;8078;47.822;9.402;2023-06-22T01:20:38;17.50;99.90
15959;DHT22;8078;47.822;9.402;2023-06-22T01:23:14;17.50;99.90
15959;DHT22;8078;47.822;9.402;2023-06-22T01:26:14;17.50;99.90
15959;DHT22;8078;47.822;9.402;2023-06-22T01:28:52;17.40;99.90
15959;DHT22;8078;47.822;9.402;2023-06-22T01:31:22;17.30;99.90
15959;DHT22;8078;47.822;9.402;2023-06-22T01:33:51;17.30;99.90
15959;DHT22;8078;47.822;9.402;2023-06-22T01:36:18;17.30;99.90
15959;DHT22;8078;47.822;9.402;2023-06-22T01:38:45;17.20;99.90
15959;DHT22;8078;47.822;9.402;2023-06-22T01:41:12;17.30;99.90
15959;DHT22;8078;47.822;9.402;2023-06-22T01:43:38;17.30;99.90
15959;DHT22;8078;47.822;9.402;2023-06-22T01:46:04;17.20;99.90
15959;DHT22;8078;47.822;9.402;2023-06-22T01:48:30;17.10;99.90
15959;DHT22;8078;47.822;9.402;2023-06-22T01:50:57;17.10;99.90
15959;DHT22;8078;47.822;9.402;2023-06-22T01:53:23;17.00;99.90
15959;DHT22;8078;47.822;9.402;2023-06-22T01:55:49;17.00;99.90
15959;DHT22;8078;47.822;9.402;2023-06-22T01:58:15;16.90;99.90
15959;DHT22;8078;47.822;9.402;2023-06-22T02:00:53;16.90;99.90
15959;DHT22;8078;47.822;9.402;2023-06-22T02:03:23;16.90;99.90
15959;DHT22;8078;47.822;9.402;2023-06-22T02:05:54;16.90;99.90
15959;DHT22;8078;47.822;9.402;2023-06-22T02:08:23;16.90;99.90
15959;DHT22;8078;47.822;9.402;2023-06-22T02:10:51;16.90;99.90
15959;DHT22;8078;47.822;9.402;2023-06-22T02:13:18;16.90;99.90
15959;DHT22;8078;47.822;9.402;2023-06-22T02:15:44;16.90;99.90
15959;DHT22;8078;47.822;9.402;2023-06-22T02:18:10;16.80;99.90
15959;DHT22;8078;47.822;9.402;2023-06-22T02:20:37;16.90;99.90
15959;DHT22;8078;47.822;9.402;2023-06-22T02:23:02;16.90;99.90
15959;DHT22;8078;47.822;9.402;2023-06-22T02:25:28;17.00;99.90
15959;DHT22;8078;47.822;9.402;2023-06-22T02:27:54;17.00;99.90
15959;DHT22;8078;47.822;9.402;2023-06-22T02:30:19;17.10;99.90
15959;DHT22;8078;47.822;9.402;2023-06-22T02:32:45;17.10;99.90
15959;DHT22;8078;47.822;9.402;2023-06-22T02:35:10;17.00;99.90
15959;DHT22;8078;47.822;9.402;2023-06-22T02:37:37;16.90;99.90
15959;DHT22;8078;47.822;9.402;2023-06-22T02:40:05;17.00;99.90
15959;DHT22;8078;47.822;9.402;2023-06-22T02:42:34;17.00;99.90
15959;DHT22;8078;47.822;9.402;2023-06-22T02:45:00;17.00;99.90
15959;DHT22;8078;47.822;9.402;2023-06-22T02:47:26;17.00;99.90
15959;DHT22;8078;47.822;9.402;2023-06-22T02:49:52;17.10;99.90
15959;DHT22;8078;47.822;9.402;2023-06-22T02:52:17;17.10;99.90
15959;DHT22;8078;47.822;9.402;2023-06-22T02:54:43;17.10;99.90
15959;DHT22;8078;47.822;9.402;2023-06-22T02:57:10;17.10;99.90
15959;DHT22;8078;47.822;9.402;2023-06-22T02:59:42;17.00;99.90
15959;DHT22;8078;47.822;9.402;2023-06-22T03:02:08;17.00;99.90
15959;DHT22;8078;47.822;9.402;2023-06-22T03:04:35;16.90;99.90
15959;DHT22;8078;47.822;9.402;2023-06-22T03:07:01;16.90;99.90
15959;DHT22;8078;47.822;9.402;2023-06-22T03:09:27;16.90;99.90
15959;DHT22;8078;47.822;9.402;2023-06-22T03:11:54;16.90;99.90
15959;DHT22;8078;47.822;9.402;2023-06-22T03:14:19;16.90;99.90
15959;DHT22;8078;47.822;9.402;2023-06-22T03:16:45;16.90;99.90
15959;DHT22;8078;47.822;9.402;2023-06-22T03:19:11;16.80;99.90
15959;DHT22;8078;47.822;9.402;2023-06-22T03:21:38;16.90;99.90
15959;DHT22;8078;47.822;9.402;2023-06-22T03:24:07;16.90;99.90
15959;DHT22;8078;47.822;9.402;2023-06-22T03:26:34;16.80;99.90
15959;DHT22;8078;47.822;9.402;2023-06-22T03:29:00;16.70;99.90
15959;DHT22;8078;47.822;9.402;2023-06-22T03:31:26;16.80;99.90
15959;DHT22;8078;47.822;9.402;2023-06-22T03:33:51;16.80;99.90
15959;DHT22;8078;47.822;9.402;2023-06-22T03:36:17;16.70;99.90
15959;DHT22;8078;47.822;9.402;2023-06-22T03:38:48;16.60;99.90
15959;DHT22;8078;47.822;9.402;2023-06-22T03:41:14;16.50;99.90
15959;DHT22;8078;47.822;9.402;2023-06-22T03:43:39;16.50;99.90
15959;DHT22;8078;47.822;9.402;2023-06-22T03:46:05;16.40;99.90
15959;DHT22;8078;47.822;9.402;2023-06-22T03:48:31;16.40;99.90
15959;DHT22;8078;47.822;9.402;2023-06-22T03:50:58;16.50;99.90
15959;DHT22;8078;47.822;9.402;2023-06-22T03:53:24;16.50;99.90
15959;DHT22;8078;47.822;9.402;2023-06-22T03:55:51;16.50;99.90
15959;DHT22;8078;47.822;9.402;2023-06-22T03:58:18;16.60;99.90
15959;DHT22;8078;47.822;9.402;2023-06-22T04:00:51;16.60;99.90
15959;DHT22;8078;47.822;9.402;2023-06-22T04:03:17;16.60;99.90
15959;DHT22;8078;47.822;9.402;2023-06-22T04:05:46;16.70;99.90
15959;DHT22;8078;47.822;9.402;2023-06-22T04:08:13;16.70;99.90
15959;DHT22;8078;47.822;9.402;2023-06-22T04:10:39;16.80;99.90
15959;DHT22;8078;47.822;9.402;2023-06-22T04:13:04;16.80;99.90
15959;DHT22;8078;47.822;9.402;2023-06-22T04:15:30;16.90;99.90
15959;DHT22;8078;47.822;9.402;2023-06-22T04:17:56;17.00;99.90
15959;DHT22;8078;47.822;9.402;2023-06-22T04:20:22;17.00;99.90
15959;DHT22;8078;47.822;9.402;2023-06-22T04:22:51;17.10;99.90
15959;DHT22;8078;47.822;9.402;2023-06-22T04:25:17;17.20;99.90
15959;DHT22;8078;47.822;9.402;2023-06-22T04:27:42;17.20;99.90
15959;DHT22;8078;47.822;9.402;2023-06-22T04:30:08;17.30;99.90
15959;DHT22;8078;47.822;9.402;2023-06-22T04:32:35;17.40;99.90
15959;DHT22;8078;47.822;9.402;2023-06-22T04:35:05;17.50;99.90
15959;DHT22;8078;47.822;9.402;2023-06-22T04:37:32;17.50;99.90
15959;DHT22;8078;47.822;9.402;2023-06-22T04:39:57;17.50;99.90
15959;DHT22;8078;47.822;9.402;2023-06-22T04:42:28;17.50;99.90
15959;DHT22;8078;47.822;9.402;2023-06-22T04:44:54;17.40;99.90
15959;DHT22;8078;47.822;9.402;2023-06-22T04:47:19;17.50;99.90
15959;DHT22;8078;47.822;9.402;2023-06-22T04:49:45;17.50;99.90
15959;DHT22;8078;47.822;9.402;2023-06-22T04:52:12;17.40;99.90
15959;DHT22;8078;47.822;9.402;2023-06-22T04:54:39;17.50;99.90
15959;DHT22;8078;47.822;9.402;2023-06-22T04:57:07;17.50;99.90
15959;DHT22;8078;47.822;9.402;2023-06-22T04:59:37;17.60;99.90
15959;DHT22;8078;47.822;9.402;2023-06-22T05:02:04;17.60;99.90
15959;DHT22;8078;47.822;9.402;2023-06-22T05:04:31;17.70;99.90
15959;DHT22;8078;47.822;9.402;2023-06-22T05:06:57;17.60;99.90
15959;DHT22;8078;47.822;9.402;2023-06-22T05:09:24;17.50;99.90
15959;DHT22;8078;47.822;9.402;2023-06-22T05:11:50;17.60;99.90
15959;DHT22;8078;47.822;9.402;2023-06-22T05:14:16;17.70;99.90
15959;DHT22;8078;47.822;9.402;2023-06-22T05:16:42;17.80;99.90
15959;DHT22;8078;47.822;9.402;2023-06-22T05:19:09;17.90;99.90
15959;DHT22;8078;47.822;9.402;2023-06-22T05:21:34;18.00;99.90
15959;DHT22;8078;47.822;9.402;2023-06-22T05:24:00;18.10;99.90
15959;DHT22;8078;47.822;9.402;2023-06-22T05:26:29;18.20;99.90
15959;DHT22;8078;47.822;9.402;2023-06-22T05:28:55;18.40;99.90
15959;DHT22;8078;47.822;9.402;2023-06-22T05:31:21;18.50;99.90
15959;DHT22;8078;47.822;9.402;2023-06-22T05:33:47;18.70;99.90
15959;DHT22;8078;47.822;9.402;2023-06-22T05:36:13;18.80;99.90
15959;DHT22;8078;47.822;9.402;2023-06-22T05:38:40;19.00;99.90
15959;DHT22;8078;47.822;9.402;2023-06-22T05:41:07;19.20;99.90
15959;DHT22;8078;47.822;9.402;2023-06-22T05:43:32;19.40;99.90
15959;DHT22;8078;47.822;9.402;2023-06-22T05:45:59;19.70;99.90
15959;DHT22;8078;47.822;9.402;2023-06-22T05:48:25;19.60;99.90
15959;DHT22;8078;47.822;9.402;2023-06-22T05:50:50;19.50;99.90
15959;DHT22;8078;47.822;9.402;2023-06-22T05:53:16;19.60;99.90
15959;DHT22;8078;47.822;9.402;2023-06-22T05:55:42;19.70;99.90
15959;DHT22;8078;47.822;9.402;2023-06-22T05:58:08;19.80;99.90
15959;DHT22;8078;47.822;9.402;2023-06-22T06:00:33;19.90;99.90
15959;DHT22;8078;47.822;9.402;2023-06-22T06:02:59;20.10;99.90
15959;DHT22;8078;47.822;9.402;2023-06-22T06:05:29;20.10;99.90
15959;DHT22;8078;47.822;9.402;2023-06-22T06:07:54;20.10;99.90
15959;DHT22;8078;47.822;9.402;2023-06-22T06:10:20;20.20;99.90
15959;DHT22;8078;47.822;9.402;2023-06-22T06:12:46;20.30;99.90
15959;DHT22;8078;47.822;9.402;2023-06-22T06:15:11;20.30;99.90
15959;DHT22;8078;47.822;9.402;2023-06-22T06:17:48;20.40;99.90
15959;DHT22;8078;47.822;9.402;2023-06-22T06:20:15;20.60;99.90
15959;DHT22;8078;47.822;9.402;2023-06-22T06:22:40;20.90;99.90
15959;DHT22;8078;47.822;9.402;2023-06-22T06:25:08;21.00;99.90
15959;DHT22;8078;47.822;9.402;2023-06-22T06:27:33;21.20;99.90
15959;DHT22;8078;47.822;9.402;2023-06-22T06:29:59;21.40;99.90
15959;DHT22;8078;47.822;9.402;2023-06-22T06:32:25;21.60;99.90
15959;DHT22;8078;47.822;9.402;2023-06-22T06:34:50;21.60;99.90
15959;DHT22;8078;47.822;9.402;2023-06-22T06:37:17;21.50;99.90
15959;DHT22;8078;47.822;9.402;2023-06-22T06:39:44;21.60;99.90
15959;DHT22;8078;47.822;9.402;2023-06-22T06:42:09;21.60;99.90
15959;DHT22;8078;47.822;9.402;2023-06-22T06:44:36;21.30;99.90
15959;DHT22;8078;47.822;9.402;2023-06-22T06:47:04;21.10;99.90
15959;DHT22;8078;47.822;9.402;2023-06-22T06:49:29;21.10;99.90
15959;DHT22;8078;47.822;9.402;2023-06-22T06:51:55;21.20;99.90
15959;DHT22;8078;47.822;9.402;2023-06-22T06:54:21;21.40;99.90
15959;DHT22;8078;47.822;9.402;2023-06-22T06:56:47;21.60;99.90
15959;DHT22;8078;47.822;9.402;2023-06-22T06:59:14;21.70;99.90
15959;DHT22;8078;47.822;9.402;2023-06-22T07:01:41;21.70;99.90
15959;DHT22;8078;47.822;9.402;2023-06-22T07:04:06;21.90;99.90
15959;DHT22;8078;47.822;9.402;2023-06-22T07:06:32;22.30;99.90
15959;DHT22;8078;47.822;9.402;2023-06-22T07:08:59;22.50;99.90
15959;DHT22;8078;47.822;9.402;2023-06-22T07:11:25;22.60;99.90
15959;DHT22;8078;47.822;9.402;2023-06-22T07:13:50;22.80;99.90
15959;DHT22;8078;47.822;9.402;2023-06-22T07:16:16;22.30;99.90
15959;DHT22;8078;47.822;9.402;2023-06-22T07:18:41;21.80;99.90
15959;DHT22;8078;47.822;9.402;2023-06-22T07:21:07;21.40;99.90
15959;DHT22;8078;47.822;9.402;2023-06-22T07:23:33;21.30;99.90
15959;DHT22;8078;47.822;9.402;2023-06-22T07:25:59;21.60;99.90
15959;DHT22;8078;47.822;9.402;2023-06-22T07:28:27;22.10;99.90
15959;DHT22;8078;47.822;9.402;2023-06-22T07:30:53;22.20;99.90
15959;DHT22;8078;47.822;9.402;2023-06-22T07:33:19;22.30;99.90
15959;DHT22;8078;47.822;9.402;2023-06-22T07:35:45;22.60;99.90
15959;DHT22;8078;47.822;9.402;2023-06-22T07:38:12;22.90;99.90
15959;DHT22;8078;47.822;9.402;2023-06-22T07:40:37;22.90;99.90
15959;DHT22;8078;47.822;9.402;2023-06-22T07:43:03;22.90;99.90
15959;DHT22;8078;47.822;9.402;2023-06-22T07:45:29;23.10;99.90
15959;DHT22;8078;47.822;9.402;2023-06-22T07:47:55;23.50;99.90
15959;DHT22;8078;47.822;9.402;2023-06-22T07:50:20;23.90;99.90
15959;DHT22;8078;47.822;9.402;2023-06-22T07:52:46;24.20;99.90
15959;DHT22;8078;47.822;9.402;2023-06-22T07:55:13;24.70;99.90
15959;DHT22;8078;47.822;9.402;2023-06-22T07:57:39;25.20;99.90
15959;DHT22;8078;47.822;9.402;2023-06-22T08:00:06;25.70;99.90
15959;DHT22;8078;47.822;9.402;2023-06-22T08:02:44;26.20;99.90
15959;DHT22;8078;47.822;9.402;2023-06-22T08:05:10;25.80;99.90
15959;DHT22;8078;47.822;9.402;2023-06-22T08:07:37;26.10;99.90
15959;DHT22;8078;47.822;9.402;2023-06-22T08:10:03;26.60;99.90
15959;DHT22;8078;47.822;9.402;2023-06-22T08:12:29;27.00;99.90
15959;DHT22;8078;47.822;9.402;2023-06-22T08:14:55;27.10;99.90
15959;DHT22;8078;47.822;9.402;2023-06-22T08:17:22;27.30;99.90
15959;DHT22;8078;47.822;9.402;2023-06-22T08:19:48;27.90;99.90
15959;DHT22;8078;47.822;9.402;2023-06-22T08:22:15;28.40;99.90
15959;DHT22;8078;47.822;9.402;2023-06-22T08:24:41;28.40;99.90
15959;DHT22;8078;47.822;9.402;2023-06-22T08:27:10;26.60;99.90
15959;DHT22;8078;47.822;9.402;2023-06-22T08:29:40;24.10;99.90
15959;DHT22;8078;47.822;9.402;2023-06-22T08:32:08;23.30;99.90
15959;DHT22;8078;47.822;9.402;2023-06-22T08:34:34;23.00;99.90
15959;DHT22;8078;47.822;9.402;2023-06-22T08:37:00;22.30;99.90
15959;DHT22;8078;47.822;9.402;2023-06-22T08:39:26;22.30;99.90
15959;DHT22;8078;47.822;9.402;2023-06-22T08:41:51;22.50;99.90
15959;DHT22;8078;47.822;9.402;2023-06-22T08:44:18;22.40;99.90
15959;DHT22;8078;47.822;9.402;2023-06-22T08:46:44;22.10;99.90
15959;DHT22;8078;47.822;9.402;2023-06-22T08:49:10;22.30;99.90
15959;DHT22;8078;47.822;9.402;2023-06-22T08:51:36;22.00;99.90
15959;DHT22;8078;47.822;9.402;2023-06-22T08:54:01;22.20;99.90
15959;DHT22;8078;47.822;9.402;2023-06-22T08:56:27;22.20;99.90
15959;DHT22;8078;47.822;9.402;2023-06-22T08:58:52;22.20;99.90
15959;DHT22;8078;47.822;9.402;2023-06-22T09:01:18;22.30;99.90
15959;DHT22;8078;47.822;9.402;2023-06-22T09:03:44;22.50;99.90
15959;DHT22;8078;47.822;9.402;2023-06-22T09:06:10;22.20;99.90
15959;DHT22;8078;47.822;9.402;2023-06-22T09:08:36;22.80;99.90
15959;DHT22;8078;47.822;9.402;2023-06-22T09:11:01;22.70;99.90
15959;DHT22;8078;47.822;9.402;2023-06-22T09:13:30;23.30;99.90
15959;DHT22;8078;47.822;9.402;2023-06-22T09:15:56;23.70;99.90
15959;DHT22;8078;47.822;9.402;2023-06-22T09:18:21;23.00;99.90
15959;DHT22;8078;47.822;9.402;2023-06-22T09:20:47;22.90;99.90
15959;DHT22;8078;47.822;9.402;2023-06-22T09:23:13;22.80;99.90
15959;DHT22;8078;47.822;9.402;2023-06-22T09:25:38;23.60;99.90
15959;DHT22;8078;47.822;9.402;2023-06-22T09:28:05;23.30;99.90
15959;DHT22;8078;47.822;9.402;2023-06-22T09:30:31;23.70;99.90
15959;DHT22;8078;47.822;9.402;2023-06-22T09:32:56;23.80;99.90
15959;DHT22;8078;47.822;9.402;2023-06-22T09:35:22;23.30;99.90
15959;DHT22;8078;47.822;9.402;2023-06-22T09:37:47;24.00;99.90
15959;DHT22;8078;47.822;9.402;2023-06-22T09:40:13;23.90;99.90
15959;DHT22;8078;47.822;9.402;2023-06-22T09:42:41;24.30;99.90
15959;DHT22;8078;47.822;9.402;2023-06-22T09:45:07;24.30;99.90
15959;DHT22;8078;47.822;9.402;2023-06-22T09:47:33;25.00;99.90
15959;DHT22;8078;47.822;9.402;2023-06-22T09:49:58;25.40;99.90
15959;DHT22;8078;47.822;9.402;2023-06-22T09:52:25;26.00;99.90
15959;DHT22;8078;47.822;9.402;2023-06-22T09:54:51;25.80;99.90
15959;DHT22;8078;47.822;9.402;2023-06-22T09:57:16;26.30;99.90
15959;DHT22;8078;47.822;9.402;2023-06-22T09:59:42;27.60;99.90
15959;DHT22;8078;47.822;9.402;2023-06-22T10:02:08;28.10;99.90
15959;DHT22;8078;47.822;9.402;2023-06-22T10:04:34;28.20;99.90
15959;DHT22;8078;47.822;9.402;2023-06-22T10:07:00;28.40;99.90
15959;DHT22;8078;47.822;9.402;2023-06-22T10:09:26;29.00;99.90
15959;DHT22;8078;47.822;9.402;2023-06-22T10:11:53;29.30;99.90
15959;DHT22;8078;47.822;9.402;2023-06-22T10:14:19;29.90;99.90
15959;DHT22;8078;47.822;9.402;2023-06-22T10:16:45;30.30;99.90
15959;DHT22;8078;47.822;9.402;2023-06-22T10:19:10;30.70;99.90
15959;DHT22;8078;47.822;9.402;2023-06-22T10:21:36;28.80;99.90
15959;DHT22;8078;47.822;9.402;2023-06-22T10:24:03;28.20;99.90
15959;DHT22;8078;47.822;9.402;2023-06-22T10:26:35;28.50;99.90
15959;DHT22;8078;47.822;9.402;2023-06-22T10:29:02;28.10;99.90
15959;DHT22;8078;47.822;9.402;2023-06-22T10:31:28;27.50;99.90
15959;DHT22;8078;47.822;9.402;2023-06-22T10:33:54;26.90;99.90
15959;DHT22;8078;47.822;9.402;2023-06-22T10:36:21;27.90;99.90
15959;DHT22;8078;47.822;9.402;2023-06-22T10:38:47;28.10;99.90
15959;DHT22;8078;47.822;9.402;2023-06-22T10:41:14;28.00;99.90
15959;DHT22;8078;47.822;9.402;2023-06-22T10:43:39;28.10;99.90
15959;DHT22;8078;47.822;9.402;2023-06-22T10:46:06;27.10;99.90
15959;DHT22;8078;47.822;9.402;2023-06-22T10:48:32;27.30;99.90
15959;DHT22;8078;47.822;9.402;2023-06-22T10:50:57;27.70;99.90
15959;DHT22;8078;47.822;9.402;2023-06-22T10:53:23;26.90;99.90
15959;DHT22;8078;47.822;9.402;2023-06-22T10:55:48;28.10;99.90
15959;DHT22;8078;47.822;9.402;2023-06-22T10:58:14;27.40;99.90
15959;DHT22;8078;47.822;9.402;2023-06-22T11:00:40;27.40;99.90
15959;DHT22;8078;47.822;9.402;2023-06-22T11:03:06;27.30;99.90
15959;DHT22;8078;47.822;9.402;2023-06-22T11:05:31;27.20;99.90
15959;DHT22;8078;47.822;9.402;2023-06-22T11:07:57;27.90;99.90
15959;DHT22;8078;47.822;9.402;2023-06-22T11:10:23;28.30;99.90
15959;DHT22;8078;47.822;9.402;2023-06-22T11:12:48;27.70;99.90
15959;DHT22;8078;47.822;9.402;2023-06-22T11:15:14;27.90;99.90
15959;DHT22;8078;47.822;9.402;2023-06-22T11:17:39;27.50;99.90
15959;DHT22;8078;47.822;9.402;2023-06-22T11:20:06;26.80;99.90
15959;DHT22;8078;47.822;9.402;2023-06-22T11:22:40;27.20;99.90
15959;DHT22;8078;47.822;9.402;2023-06-22T11:25:06;27.60;99.90
15959;DHT22;8078;47.822;9.402;2023-06-22T11:27:32;26.70;99.90
15959;DHT22;8078;47.822;9.402;2023-06-22T11:29:57;27.30;99.90
15959;DHT22;8078;47.822;9.402;2023-06-22T11:32:23;27.30;99.90
15959;DHT22;8078;47.822;9.402;2023-06-22T11:34:49;27.20;99.90
15959;DHT22;8078;47.822;9.402;2023-06-22T11:37:15;27.00;99.90
15959;DHT22;8078;47.822;9.402;2023-06-22T11:39:41;26.80;99.90
15959;DHT22;8078;47.822;9.402;2023-06-22T11:42:07;26.50;99.90
15959;DHT22;8078;47.822;9.402;2023-06-22T11:44:33;26.60;99.90
15959;DHT22;8078;47.822;9.402;2023-06-22T11:46:58;26.40;99.90
15959;DHT22;8078;47.822;9.402;2023-06-22T11:49:29;26.70;99.90
15959;DHT22;8078;47.822;9.402;2023-06-22T11:51:54;26.60;99.90
15959;DHT22;8078;47.822;9.402;2023-06-22T11:54:20;26.00;99.90
15959;DHT22;8078;47.822;9.402;2023-06-22T11:56:45;25.70;99.90
15959;DHT22;8078;47.822;9.402;2023-06-22T11:59:11;25.70;99.90
15959;DHT22;8078;47.822;9.402;2023-06-22T12:01:36;26.30;99.90
15959;DHT22;8078;47.822;9.402;2023-06-22T12:04:02;26.40;99.90
15959;DHT22;8078;47.822;9.402;2023-06-22T12:06:35;26.70;99.90
15959;DHT22;8078;47.822;9.402;2023-06-22T12:09:03;26.90;99.90
15959;DHT22;8078;47.822;9.402;2023-06-22T12:11:30;26.10;99.90
15959;DHT22;8078;47.822;9.402;2023-06-22T12:13:55;25.80;99.90
15959;DHT22;8078;47.822;9.402;2023-06-22T12:16:21;25.70;99.90
15959;DHT22;8078;47.822;9.402;2023-06-22T12:18:47;26.10;99.90
15959;DHT22;8078;47.822;9.402;2023-06-22T12:21:13;26.40;99.90
15959;DHT22;8078;47.822;9.402;2023-06-22T12:23:38;26.50;99.90
15959;DHT22;8078;47.822;9.402;2023-06-22T12:26:04;26.20;99.90
15959;DHT22;8078;47.822;9.402;2023-06-22T12:28:29;26.60;99.90
15959;DHT22;8078;47.822;9.402;2023-06-22T12:30:55;26.40;99.90
15959;DHT22;8078;47.822;9.402;2023-06-22T12:33:20;26.00;99.90
15959;DHT22;8078;47.822;9.402;2023-06-22T12:35:46;25.60;99.90
15959;DHT22;8078;47.822;9.402;2023-06-22T12:38:14;25.60;99.90
15959;DHT22;8078;47.822;9.402;2023-06-22T12:40:40;25.80;99.90
15959;DHT22;8078;47.822;9.402;2023-06-22T12:43:05;25.70;99.90
15959;DHT22;8078;47.822;9.402;2023-06-22T12:45:31;25.70;99.90
15959;DHT22;8078;47.822;9.402;2023-06-22T12:47:58;25.70;99.90
15959;DHT22;8078;47.822;9.402;2023-06-22T12:50:25;25.80;99.90
15959;DHT22;8078;47.822;9.402;2023-06-22T12:52:50;26.30;99.90
15959;DHT22;8078;47.822;9.402;2023-06-22T12:55:16;26.30;99.90
15959;DHT22;8078;47.822;9.402;2023-06-22T12:57:41;27.00;99.90
15959;DHT22;8078;47.822;9.402;2023-06-22T13:00:07;26.20;99.90
15959;DHT22;8078;47.822;9.402;2023-06-22T13:02:35;25.90;99.90
15959;DHT22;8078;47.822;9.402;2023-06-22T13:05:01;26.20;99.90
15959;DHT22;8078;47.822;9.402;2023-06-22T13:07:27;26.80;99.90
15959;DHT22;8078;47.822;9.402;2023-06-22T13:09:53;26.60;99.90
15959;DHT22;8078;47.822;9.402;2023-06-22T13:12:22;26.60;99.90
15959;DHT22;8078;47.822;9.402;2023-06-22T13:14:48;26.70;99.90
15959;DHT22;8078;47.822;9.402;2023-06-22T13:17:15;26.80;99.90
15959;DHT22;8078;47.822;9.402;2023-06-22T13:19:41;26.40;99.90
15959;DHT22;8078;47.822;9.402;2023-06-22T13:24:51;26.70;99.90
15959;DHT22;8078;47.822;9.402;2023-06-22T13:27:16;26.90;99.90
15959;DHT22;8078;47.822;9.402;2023-06-22T13:29:42;26.90;99.90
15959;DHT22;8078;47.822;9.402;2023-06-22T13:32:08;27.20;99.90
15959;DHT22;8078;47.822;9.402;2023-06-22T13:34:33;27.00;99.90
15959;DHT22;8078;47.822;9.402;2023-06-22T13:36:59;26.80;99.90
15959;DHT22;8078;47.822;9.402;2023-06-22T13:39:24;28.10;99.90
15959;DHT22;8078;47.822;9.402;2023-06-22T13:41:50;29.10;99.90
15959;DHT22;8078;47.822;9.402;2023-06-22T13:44:15;28.90;99.90
15959;DHT22;8078;47.822;9.402;2023-06-22T13:46:41;28.30;99.90
15959;DHT22;8078;47.822;9.402;2023-06-22T13:49:06;28.60;99.90
15959;DHT22;8078;47.822;9.402;2023-06-22T13:51:32;28.80;99.90
15959;DHT22;8078;47.822;9.402;2023-06-22T13:53:58;28.90;99.90
15959;DHT22;8078;47.822;9.402;2023-06-22T13:56:23;28.50;99.90
15959;DHT22;8078;47.822;9.402;2023-06-22T13:58:49;28.10;99.90
15959;DHT22;8078;47.822;9.402;2023-06-22T14:01:15;28.70;99.90
15959;DHT22;8078;47.822;9.402;2023-06-22T14:03:40;29.30;99.90
15959;DHT22;8078;47.822;9.402;2023-06-22T14:06:06;28.60;99.90
15959;DHT22;8078;47.822;9.402;2023-06-22T14:08:31;28.30;99.90
15959;DHT22;8078;47.822;9.402;2023-06-22T14:10:57;29.00;99.90
15959;DHT22;8078;47.822;9.402;2023-06-22T14:13:23;29.00;99.90
15959;DHT22;8078;47.822;9.402;2023-06-22T14:15:48;27.90;99.90
15959;DHT22;8078;47.822;9.402;2023-06-22T14:18:14;26.90;99.90
15959;DHT22;8078;47.822;9.402;2023-06-22T14:20:40;26.50;99.90
15959;DHT22;8078;47.822;9.402;2023-06-22T14:23:06;26.10;99.90
15959;DHT22;8078;47.822;9.402;2023-06-22T14:25:31;26.10;99.90
15959;DHT22;8078;47.822;9.402;2023-06-22T14:27:57;25.80;99.90
15959;DHT22;8078;47.822;9.402;2023-06-22T14:30:22;25.60;99.90
15959;DHT22;8078;47.822;9.402;2023-06-22T14:32:48;25.60;99.90
15959;DHT22;8078;47.822;9.402;2023-06-22T14:35:13;25.50;99.90
15959;DHT22;8078;47.822;9.402;2023-06-22T14:37:39;25.50;99.90
15959;DHT22;8078;47.822;9.402;2023-06-22T14:40:05;25.40;99.90
15959;DHT22;8078;47.822;9.402;2023-06-22T14:42:31;25.40;99.90
15959;DHT22;8078;47.822;9.402;2023-06-22T14:44:56;25.40;99.90
15959;DHT22;8078;47.822;9.402;2023-06-22T14:47:22;25.40;99.90
15959;DHT22;8078;47.822;9.402;2023-06-22T14:49:48;25.20;99.90
15959;DHT22;8078;47.822;9.402;2023-06-22T14:52:13;25.40;99.90
15959;DHT22;8078;47.822;9.402;2023-06-22T14:54:39;25.30;99.90
15959;DHT22;8078;47.822;9.402;2023-06-22T14:57:05;25.20;99.90
15959;DHT22;8078;47.822;9.402;2023-06-22T14:59:30;25.20;99.90
15959;DHT22;8078;47.822;9.402;2023-06-22T15:01:56;25.40;99.90
15959;DHT22;8078;47.822;9.402;2023-06-22T15:04:22;25.80;99.90
15959;DHT22;8078;47.822;9.402;2023-06-22T15:06:47;25.70;99.90
15959;DHT22;8078;47.822;9.402;2023-06-22T15:09:13;25.60;99.90
15959;DHT22;8078;47.822;9.402;2023-06-22T15:11:38;25.50;99.90
15959;DHT22;8078;47.822;9.402;2023-06-22T15:14:04;25.70;99.90
15959;DHT22;8078;47.822;9.402;2023-06-22T15:16:30;25.60;99.90
15959;DHT22;8078;47.822;9.402;2023-06-22T15:18:55;25.60;99.90
15959;DHT22;8078;47.822;9.402;2023-06-22T15:21:21;25.50;99.90
15959;DHT22;8078;47.822;9.402;2023-06-22T15:23:46;25.70;99.90
15959;DHT22;8078;47.822;9.402;2023-06-22T15:26:12;25.70;99.90
15959;DHT22;8078;47.822;9.402;2023-06-22T15:28:39;25.70;99.90
15959;DHT22;8078;47.822;9.402;2023-06-22T15:31:05;25.90;99.90
15959;DHT22;8078;47.822;9.402;2023-06-22T15:33:31;26.10;99.90
15959;DHT22;8078;47.822;9.402;2023-06-22T15:35:57;26.20;99.90
15959;DHT22;8078;47.822;9.402;2023-06-22T15:38:23;26.20;99.90
15959;DHT22;8078;47.822;9.402;2023-06-22T15:40:49;26.40;99.90
15959;DHT22;8078;47.822;9.402;2023-06-22T15:43:14;26.50;99.90
15959;DHT22;8078;47.822;9.402;2023-06-22T15:45:40;26.30;99.90